Time;durP1;ratioP1;P1;durP2;ratioP2;P2;SDS_P1;SDS_P2;PMS_P1;PMS_P2;Temp;Humidity;BMP_temperature;BMP_pressure;BME280_temperature;BME280_humidity;BME280_pressure;Samples;Min_cycle;Max_cycle;Signal;HPM_P1;HPM_P2
2022/04/14 00:00:01;;;;;;;973.23;459.40;;;;;;;;;;5017616;28;20596;-59
2022/04/14 00:02:56;;;;;;;590.23;182.57;;;;;;;;;;5017251;28;20267;-59
2022/04/14 00:05:23;;;;;;;377.77;96.27;;;;;;;;;;5017502;28;20267;-59
2022/04/14 00:07:50;;;;;;;99.20;35.90;;;;;;;;;;5017153;28;20291;-59
2022/04/14 00:10:17;;;;;;;99.77;37.37;;;;;;;;;;5017315;28;20209;-59
2022/04/14 00:12:45;;;;;;;212.57;65.37;;;;;;;;;;5017036;28;20320;-59
2022/04/14 00:15:13;;;;;;;81.27;29.87;;;;;;;;;;5016736;28;20228;-60
2022/04/14 00:17:40;;;;;;;77.13;29.33;;;;;;;;;;5017194;28;20206;-59
2022/04/14 00:20:08;;;;;;;56.93;24.97;;;;;;;;;;5016973;28;20233;-59
2022/04/14 00:22:36;;;;;;;185.33;56.23;;;;;;;;;;5016379;28;20290;-59
2022/04/14 00:25:04;;;;;;;242.27;66.30;;;;;;;;;;5017175;28;20276;-58
2022/04/14 00:27:31;;;;;;;124.97;39.57;;;;;;;;;;5017034;28;20320;-59
2022/04/14 00:29:59;;;;;;;53.77;20.83;;;;;;;;;;5016819;28;20224;-58
2022/04/14 00:32:26;;;;;;;44.00;19.93;;;;;;;;;;5017093;28;20209;-59
2022/04/14 00:34:53;;;;;;;45.57;20.80;;;;;;;;;;5016833;28;20252;-59
2022/04/14 00:37:20;;;;;;;105.90;33.83;;;;;;;;;;5016606;28;20292;-59
2022/04/14 00:39:49;;;;;;;89.43;33.03;;;;;;;;;;5016551;28;20205;-59
2022/04/14 00:42:17;;;;;;;71.73;27.77;;;;;;;;;;5016543;28;20224;-59
2022/04/14 00:44:44;;;;;;;163.83;51.47;;;;;;;;;;5016707;28;20661;-59
2022/04/14 00:47:12;;;;;;;154.87;47.40;;;;;;;;;;5016445;28;20249;-59
2022/04/14 00:49:39;;;;;;;199.50;55.00;;;;;;;;;;5015531;28;20284;-59
2022/04/14 00:52:07;;;;;;;87.33;30.67;;;;;;;;;;5016465;28;20210;-59
2022/04/14 00:54:34;;;;;;;42.57;19.67;;;;;;;;;;5017044;28;20559;-59
2022/04/14 00:57:03;;;;;;;57.50;25.30;;;;;;;;;;5017048;28;20529;-59
2022/04/14 00:59:30;;;;;;;73.40;30.57;;;;;;;;;;5016307;28;20616;-59
2022/04/14 01:01:57;;;;;;;290.23;110.27;;;;;;;;;;5015689;28;20240;-59
2022/04/14 01:04:25;;;;;;;577.77;176.73;;;;;;;;;;5015087;28;20310;-59
2022/04/14 01:06:52;;;;;;;567.07;165.17;;;;;;;;;;5014196;28;20229;-59
2022/04/14 01:09:19;;;;;;;431.33;117.47;;;;;;;;;;5015976;28;20237;-59
2022/04/14 01:11:51;;;;;;;367.30;101.00;;;;;;;;;;5015916;28;20628;-58
2022/04/14 01:14:28;;;;;;;134.13;44.57;;;;;;;;;;5015451;28;20255;-59
2022/04/14 01:16:58;;;;;;;168.87;52.10;;;;;;;;;;5015244;28;20232;-58
2022/04/14 01:19:26;;;;;;;70.73;28.37;;;;;;;;;;5016071;28;20209;-59
2022/04/14 01:22:01;;;;;;;61.40;25.33;;;;;;;;;;5015846;28;20568;-59
2022/04/14 01:24:29;;;;;;;43.67;23.37;;;;;;;;;;5016291;28;20240;-59
2022/04/14 01:26:58;;;;;;;39.20;20.10;;;;;;;;;;5015497;28;20244;-59
2022/04/14 01:29:26;;;;;;;149.43;41.37;;;;;;;;;;5015542;28;20270;-58
2022/04/14 01:31:55;;;;;;;83.07;29.10;;;;;;;;;;5015808;28;20628;-59
2022/04/14 01:34:22;;;;;;;159.27;47.50;;;;;;;;;;5015631;28;20620;-59
2022/04/14 01:36:49;;;;;;;80.23;30.23;;;;;;;;;;5015835;28;20275;-58
2022/04/14 01:39:16;;;;;;;54.00;24.10;;;;;;;;;;5015633;28;20264;-59
2022/04/14 01:41:44;;;;;;;50.27;22.10;;;;;;;;;;5015652;28;20628;-59
2022/04/14 01:44:11;;;;;;;186.60;61.37;;;;;;;;;;5015601;28;20288;-59
2022/04/14 01:46:40;;;;;;;268.07;69.77;;;;;;;;;;5015590;28;20256;-59
2022/04/14 01:49:09;;;;;;;712.90;186.87;;;;;;;;;;5015790;28;20248;-59
2022/04/14 01:51:36;;;;;;;575.97;153.40;;;;;;;;;;5015526;28;20511;-58
2022/04/14 01:54:04;;;;;;;334.30;88.03;;;;;;;;;;5015258;28;20233;-58
2022/04/14 01:56:31;;;;;;;436.10;120.70;;;;;;;;;;5015608;28;20225;-59
2022/04/14 01:58:59;;;;;;;157.20;47.50;;;;;;;;;;5015425;28;20202;-59
2022/04/14 02:01:26;;;;;;;393.60;104.20;;;;;;;;;;5015150;28;20743;-58
2022/04/14 02:03:54;;;;;;;403.77;133.63;;;;;;;;;;5015216;28;20208;-59
2022/04/14 02:06:21;;;;;;;577.33;177.83;;;;;;;;;;5015795;28;20205;-59
2022/04/14 02:08:48;;;;;;;662.10;197.77;;;;;;;;;;5015497;28;20264;-59
2022/04/14 02:11:15;;;;;;;508.80;134.40;;;;;;;;;;5015046;28;20202;-59
2022/04/14 02:13:43;;;;;;;308.03;84.53;;;;;;;;;;5015804;28;20503;-58
2022/04/14 02:16:10;;;;;;;125.37;38.63;;;;;;;;;;5015239;28;20288;-58
2022/04/14 02:18:37;;;;;;;157.73;46.90;;;;;;;;;;5015239;28;20244;-59
2022/04/14 02:21:04;;;;;;;159.07;44.60;;;;;;;;;;5014924;28;20205;-58
2022/04/14 02:23:32;;;;;;;428.93;155.50;;;;;;;;;;5015095;28;20292;-59
2022/04/14 02:25:59;;;;;;;266.27;101.00;;;;;;;;;;5014887;28;20208;-59
2022/04/14 02:28:26;;;;;;;269.47;90.50;;;;;;;;;;5015504;28;20228;-58
2022/04/14 02:30:54;;;;;;;163.67;52.20;;;;;;;;;;5014857;28;20670;-59
2022/04/14 02:33:21;;;;;;;202.45;68.03;;;;;;;;;;5014010;28;20515;-58
2022/04/14 02:35:48;;;;;;;101.37;35.27;;;;;;;;;;5014768;28;20201;-58
2022/04/14 02:38:15;;;;;;;33.80;16.70;;;;;;;;;;5015048;28;20288;-60
2022/04/14 02:40:42;;;;;;;61.83;23.13;;;;;;;;;;5019067;28;20212;-60
2022/04/14 02:43:09;;;;;;;56.27;22.07;;;;;;;;;;5019265;28;20259;-60
2022/04/14 02:45:36;;;;;;;156.40;56.03;;;;;;;;;;5018790;28;20225;-60
2022/04/14 02:48:03;;;;;;;339.20;98.17;;;;;;;;;;5018582;28;20231;-60
2022/04/14 02:50:30;;;;;;;354.57;89.97;;;;;;;;;;5018819;28;20534;-60
2022/04/14 02:52:58;;;;;;;356.03;87.10;;;;;;;;;;5018857;28;20276;-60
2022/04/14 02:55:25;;;;;;;199.07;50.53;;;;;;;;;;5018528;28;20557;-60
2022/04/14 02:57:52;;;;;;;199.03;55.50;;;;;;;;;;5018949;28;20286;-60
2022/04/14 03:00:19;;;;;;;280.37;75.57;;;;;;;;;;5018386;28;20240;-61
2022/04/14 03:02:46;;;;;;;211.97;60.43;;;;;;;;;;5018424;28;20232;-60
2022/04/14 03:05:13;;;;;;;598.73;268.37;;;;;;;;;;5018774;28;20289;-61
2022/04/14 03:07:41;;;;;;;155.73;57.53;;;;;;;;;;5018033;28;20295;-60
2022/04/14 03:10:08;;;;;;;41.77;20.20;;;;;;;;;;5018020;28;20209;-60
2022/04/14 03:12:46;;;;;;;187.90;58.17;;;;;;;;;;5017813;28;20624;-60
2022/04/14 03:15:14;;;;;;;112.33;36.27;;;;;;;;;;5017999;28;20288;-60
2022/04/14 03:17:42;;;;;;;153.80;48.10;;;;;;;;;;5018021;28;20206;-60
2022/04/14 03:20:10;;;;;;;102.03;35.17;;;;;;;;;;5017744;28;20201;-60
2022/04/14 03:22:37;;;;;;;70.60;26.43;;;;;;;;;;5017789;28;20288;-60
2022/04/14 03:25:06;;;;;;;111.37;35.33;;;;;;;;;;5017754;28;20248;-60
2022/04/14 03:27:33;;;;;;;577.23;221.20;;;;;;;;;;5017631;28;20291;-60
2022/04/14 03:30:01;;;;;;;707.00;241.17;;;;;;;;;;5017720;28;20324;-60
2022/04/14 03:32:28;;;;;;;508.70;145.07;;;;;;;;;;5017727;28;20550;-60
2022/04/14 03:34:55;;;;;;;360.77;99.83;;;;;;;;;;5017601;28;20291;-60
2022/04/14 03:37:22;;;;;;;190.67;55.67;;;;;;;;;;5016317;28;20205;-60
2022/04/14 03:39:50;;;;;;;134.87;43.27;;;;;;;;;;5016149;28;20625;-60
2022/04/14 03:42:16;;;;;;;31.73;17.37;;;;;;;;;;5015306;28;20232;-60
2022/04/14 03:44:44;;;;;;;34.60;16.07;;;;;;;;;;5016048;28;20663;-60
2022/04/14 03:47:11;;;;;;;29.07;16.10;;;;;;;;;;5015162;28;20213;-60
2022/04/14 03:49:38;;;;;;;29.67;15.80;;;;;;;;;;5016063;28;20209;-60
2022/04/14 03:52:06;;;;;;;28.70;16.23;;;;;;;;;;5015485;28;20198;-60
2022/04/14 03:54:33;;;;;;;27.20;15.37;;;;;;;;;;5013657;28;20201;-60
2022/04/14 03:57:01;;;;;;;25.10;14.67;;;;;;;;;;5015755;28;20260;-60
2022/04/14 03:59:28;;;;;;;25.27;13.93;;;;;;;;;;5013942;28;20237;-61
2022/04/14 04:01:55;;;;;;;26.47;14.77;;;;;;;;;;5022951;28;20694;-60
2022/04/14 04:04:22;;;;;;;27.47;14.63;;;;;;;;;;5022460;28;20300;-59
2022/04/14 04:06:49;;;;;;;29.27;14.87;;;;;;;;;;5024388;28;20438;-61
2022/04/14 04:09:17;;;;;;;28.43;15.43;;;;;;;;;;5011135;28;20237;-60
2022/04/14 04:11:44;;;;;;;112.70;40.60;;;;;;;;;;5016230;28;20232;-61
2022/04/14 04:14:11;;;;;;;62.83;23.77;;;;;;;;;;5016337;28;20232;-60
2022/04/14 04:16:38;;;;;;;51.30;19.90;;;;;;;;;;5014990;28;20225;-60
2022/04/14 04:19:06;;;;;;;56.93;20.87;;;;;;;;;;5009291;28;20275;-60
2022/04/14 04:21:33;;;;;;;133.23;40.37;;;;;;;;;;5013629;28;20305;-60
2022/04/14 04:24:00;;;;;;;106.77;35.57;;;;;;;;;;5014848;28;20273;-59
2022/04/14 04:26:27;;;;;;;106.70;33.93;;;;;;;;;;5012867;28;20221;-59
2022/04/14 04:28:54;;;;;;;599.30;303.57;;;;;;;;;;5014166;28;20312;-59
2022/04/14 04:31:21;;;;;;;474.70;152.67;;;;;;;;;;5013284;28;20660;-59
2022/04/14 04:33:51;;;;;;;275.93;81.43;;;;;;;;;;5014957;28;20218;-59
2022/04/14 04:36:18;;;;;;;204.90;58.17;;;;;;;;;;5013149;28;20706;-59
2022/04/14 04:38:45;;;;;;;44.17;17.30;;;;;;;;;;5014815;28;20229;-59
2022/04/14 04:41:12;;;;;;;39.87;15.87;;;;;;;;;;5015821;28;20251;-59
2022/04/14 04:43:39;;;;;;;30.10;15.17;;;;;;;;;;5015475;28;21142;-59
2022/04/14 04:46:08;;;;;;;25.00;13.77;;;;;;;;;;5029926;28;20682;-58
2022/04/14 04:48:35;;;;;;;76.67;27.67;;;;;;;;;;5033917;28;20252;-59
2022/04/14 04:51:03;;;;;;;155.20;46.37;;;;;;;;;;5034147;28;20327;-59
2022/04/14 04:53:30;;;;;;;69.23;22.63;;;;;;;;;;5034286;28;20683;-58
2022/04/14 04:55:57;;;;;;;81.97;25.33;;;;;;;;;;5035055;28;20220;-56
2022/04/14 04:58:25;;;;;;;156.23;45.43;;;;;;;;;;5014573;28;20240;-58
2022/04/14 05:00:53;;;;;;;48.23;17.33;;;;;;;;;;5013503;28;20217;-58
2022/04/14 05:03:21;;;;;;;31.73;12.77;;;;;;;;;;5013229;28;20225;-57
2022/04/14 05:05:49;;;;;;;44.30;14.83;;;;;;;;;;5014308;28;20244;-57
2022/04/14 05:08:16;;;;;;;31.80;13.10;;;;;;;;;;5014093;28;20332;-57
2022/04/14 05:10:43;;;;;;;177.90;69.00;;;;;;;;;;5013879;28;20217;-57
2022/04/14 05:13:14;;;;;;;87.77;28.10;;;;;;;;;;5013978;28;20707;-57
2022/04/14 05:15:41;;;;;;;92.93;28.23;;;;;;;;;;5013644;28;20321;-58
2022/04/14 05:18:08;;;;;;;59.63;19.50;;;;;;;;;;5008586;28;20308;-58
2022/04/14 05:20:36;;;;;;;45.77;14.70;;;;;;;;;;5009770;28;20307;-57
2022/04/14 05:23:03;;;;;;;82.80;22.93;;;;;;;;;;5010372;28;20323;-57
2022/04/14 05:25:31;;;;;;;65.57;19.63;;;;;;;;;;5013607;28;20296;-58
2022/04/14 05:27:58;;;;;;;39.43;14.53;;;;;;;;;;5014007;28;20311;-57
2022/04/14 05:30:25;;;;;;;24.70;12.03;;;;;;;;;;5009487;28;20275;-58
2022/04/14 05:32:52;;;;;;;92.90;32.70;;;;;;;;;;5009767;28;20232;-58
2022/04/14 05:35:21;;;;;;;83.60;26.77;;;;;;;;;;5012535;28;20260;-57
2022/04/14 05:37:48;;;;;;;28.27;10.23;;;;;;;;;;5012954;28;20233;-59
2022/04/14 05:40:15;;;;;;;23.73;7.80;;;;;;;;;;5027120;28;20296;-59
2022/04/14 05:42:45;;;;;;;19.93;7.37;;;;;;;;;;5013925;28;20643;-59
2022/04/14 05:45:13;;;;;;;29.10;10.73;;;;;;;;;;5021847;28;20298;-59
2022/04/14 05:47:41;;;;;;;42.25;13.85;;;;;;;;;;5033403;28;20232;-59
2022/04/14 05:50:08;;;;;;;29.35;10.27;;;;;;;;;;5033952;28;20303;-59
2022/04/14 05:52:35;;;;;;;173.13;70.55;;;;;;;;;;5027121;28;20568;-59
2022/04/14 05:55:02;;;;;;;29.90;12.30;;;;;;;;;;5014089;28;20646;-59
2022/04/14 05:57:30;;;;;;;53.47;15.68;;;;;;;;;;5014185;28;20317;-60
2022/04/14 05:59:57;;;;;;;35.50;11.23;;;;;;;;;;5013244;28;20260;-60
2022/04/14 06:02:24;;;;;;;16.83;7.50;;;;;;;;;;5012013;28;20676;-58
2022/04/14 06:04:52;;;;;;;31.88;9.82;;;;;;;;;;5013270;28;20228;-59
2022/04/14 06:07:19;;;;;;;38.45;13.40;;;;;;;;;;5012478;28;20253;-59
2022/04/14 06:09:46;;;;;;;31.88;11.55;;;;;;;;;;5012876;28;20291;-60
2022/04/14 06:12:14;;;;;;;113.93;40.80;;;;;;;;;;5012850;28;20316;-59
2022/04/14 06:14:50;;;;;;;149.40;45.13;;;;;;;;;;5010520;28;20669;-60
2022/04/14 06:17:17;;;;;;;131.02;31.85;;;;;;;;;;5011829;28;20256;-60
2022/04/14 06:19:45;;;;;;;23.83;8.07;;;;;;;;;;5012400;28;20224;-60
2022/04/14 06:22:12;;;;;;;13.73;5.82;;;;;;;;;;5029306;28;20608;-59
2022/04/14 06:24:39;;;;;;;12.18;5.07;;;;;;;;;;5013531;28;20232;-59
2022/04/14 06:27:06;;;;;;;15.70;7.35;;;;;;;;;;5013928;28;20295;-58
2022/04/14 06:29:33;;;;;;;24.48;9.50;;;;;;;;;;5012729;28;20236;-60
2022/04/14 06:32:01;;;;;;;22.40;7.45;;;;;;;;;;5013488;28;20316;-59
2022/04/14 06:34:28;;;;;;;338.88;102.07;;;;;;;;;;5013007;28;20650;-58
2022/04/14 06:36:55;;;;;;;191.32;52.85;;;;;;;;;;5013346;28;20753;-59
2022/04/14 06:39:22;;;;;;;55.60;18.40;;;;;;;;;;5013434;28;20623;-58
2022/04/14 06:41:49;;;;;;;55.33;19.20;;;;;;;;;;5013348;28;20236;-60
2022/04/14 06:44:16;;;;;;;59.72;17.50;;;;;;;;;;5012566;28;20278;-59
2022/04/14 06:46:43;;;;;;;66.45;19.48;;;;;;;;;;5013696;28;20312;-59
2022/04/14 06:49:10;;;;;;;54.95;15.43;;;;;;;;;;5012618;28;20260;-59
2022/04/14 06:51:38;;;;;;;45.22;14.00;;;;;;;;;;5012229;28;20305;-59
2022/04/14 06:54:05;;;;;;;170.82;77.82;;;;;;;;;;5012752;28;20224;-59
2022/04/14 06:56:32;;;;;;;59.70;16.40;;;;;;;;;;5012444;28;20217;-59
2022/04/14 06:58:59;;;;;;;42.50;13.57;;;;;;;;;;5011849;28;20221;-59
2022/04/14 07:01:27;;;;;;;46.65;14.90;;;;;;;;;;5012481;28;20225;-60
2022/04/14 07:03:55;;;;;;;44.10;14.43;;;;;;;;;;5012513;28;20221;-60
2022/04/14 07:06:22;;;;;;;54.65;24.92;;;;;;;;;;5012167;28;20308;-60
2022/04/14 07:08:50;;;;;;;51.80;21.95;;;;;;;;;;5011392;28;20244;-60
2022/04/14 07:11:17;;;;;;;39.28;17.60;;;;;;;;;;5004604;28;20225;-60
2022/04/14 07:13:46;;;;;;;272.73;171.32;;;;;;;;;;5011925;28;20304;-59
2022/04/14 07:16:13;;;;;;;91.43;31.85;;;;;;;;;;5025551;28;20239;-61
2022/04/14 07:18:40;;;;;;;134.10;41.30;;;;;;;;;;5013532;28;20238;-61
2022/04/14 07:21:08;;;;;;;104.78;36.78;;;;;;;;;;5013407;28;20237;-60
2022/04/14 07:23:35;;;;;;;109.13;41.25;;;;;;;;;;5012629;28;20232;-60
2022/04/14 07:26:02;;;;;;;70.70;28.10;;;;;;;;;;5013692;28;20233;-59
2022/04/14 07:28:29;;;;;;;81.68;30.52;;;;;;;;;;5015481;28;20321;-59
2022/04/14 07:30:57;;;;;;;86.82;36.97;;;;;;;;;;5015117;28;20283;-59
2022/04/14 07:33:24;;;;;;;85.95;35.20;;;;;;;;;;5015832;28;20330;-60
2022/04/14 07:35:52;;;;;;;80.25;30.23;;;;;;;;;;5015497;28;20307;-60
2022/04/14 07:38:19;;;;;;;96.10;30.17;;;;;;;;;;5013095;28;20225;-60
2022/04/14 07:40:46;;;;;;;63.97;25.80;;;;;;;;;;5016699;28;20299;-60
2022/04/14 07:43:14;;;;;;;76.60;28.10;;;;;;;;;;5016144;28;20260;-61
2022/04/14 07:45:42;;;;;;;79.28;32.30;;;;;;;;;;5027945;28;20235;-61
2022/04/14 07:48:09;;;;;;;49.35;21.40;;;;;;;;;;5034785;28;20229;-61
2022/04/14 07:50:37;;;;;;;71.28;29.42;;;;;;;;;;5015592;28;20324;-60
2022/04/14 07:53:04;;;;;;;85.28;32.28;;;;;;;;;;5012638;28;20585;-60
2022/04/14 07:55:33;;;;;;;279.30;154.93;;;;;;;;;;5011877;28;20227;-61
2022/04/14 07:58:06;;;;;;;87.63;32.72;;;;;;;;;;5012137;28;20256;-60
2022/04/14 08:00:38;;;;;;;56.45;21.23;;;;;;;;;;5015151;28;20229;-61
2022/04/14 08:03:07;;;;;;;48.72;20.30;;;;;;;;;;5015485;28;20332;-59
2022/04/14 08:05:46;;;;;;;33.80;14.48;;;;;;;;;;5013872;28;20657;-60
2022/04/14 08:08:15;;;;;;;37.05;15.55;;;;;;;;;;5012767;28;20247;-61
2022/04/14 08:10:46;;;;;;;67.85;25.65;;;;;;;;;;5013965;28;20232;-60
2022/04/14 08:13:15;;;;;;;30.92;11.65;;;;;;;;;;5012455;28;20360;-61
2022/04/14 08:15:42;;;;;;;847.47;547.78;;;;;;;;;;5015778;28;20549;-60
2022/04/14 08:18:10;;;;;;;99.20;50.45;;;;;;;;;;5009717;28;20526;-61
2022/04/14 08:20:41;;;;;;;103.72;27.52;;;;;;;;;;5014329;28;20664;-60
2022/04/14 08:23:14;;;;;;;100.22;29.65;;;;;;;;;;5014810;28;20252;-60
2022/04/14 08:25:42;;;;;;;19.63;7.30;;;;;;;;;;5014435;28;20807;-59
2022/04/14 08:28:29;;;;;;;10.23;3.53;;;;;;;;;;5012244;28;20240;-59
2022/04/14 08:30:57;;;;;;;18.63;6.75;;;;;;;;;;5014769;28;20666;-61
2022/04/14 08:33:24;;;;;;;14.90;5.43;;;;;;;;;;5014524;28;20217;-61
2022/04/14 08:35:52;;;;;;;19.15;7.38;;;;;;;;;;5014410;28;20561;-61
2022/04/14 08:38:21;;;;;;;71.22;26.42;;;;;;;;;;5014438;28;20344;-59
2022/04/14 08:40:57;;;;;;;15.18;4.93;;;;;;;;;;4995387;28;20226;-62
2022/04/14 08:43:46;;;;;;;37.13;14.23;;;;;;;;;;5013663;28;20228;-61
2022/04/14 08:46:14;;;;;;;12.35;4.35;;;;;;;;;;5007093;28;20239;-61
2022/04/14 08:48:44;;;;;;;11.57;5.07;;;;;;;;;;5027779;28;20615;-60
2022/04/14 08:51:14;;;;;;;11.73;4.05;;;;;;;;;;5015608;28;20672;-61
2022/04/14 08:53:41;;;;;;;17.08;8.75;;;;;;;;;;5014890;28;20687;-60
2022/04/14 08:56:10;;;;;;;18.95;8.38;;;;;;;;;;5008895;28;20739;-62
2022/04/14 08:58:37;;;;;;;123.25;42.10;;;;;;;;;;5015693;28;20299;-61
2022/04/14 09:01:05;;;;;;;163.23;46.90;;;;;;;;;;5031379;28;20232;-61
2022/04/14 09:03:57;;;;;;;47.55;14.38;;;;;;;;;;5040530;28;20266;-60
2022/04/14 09:06:28;;;;;;;35.22;11.73;;;;;;;;;;5022181;28;20234;-62
2022/04/14 09:08:57;;;;;;;37.17;12.38;;;;;;;;;;5016256;28;20331;-62
2022/04/14 09:11:26;;;;;;;16.52;5.50;;;;;;;;;;5011684;28;20204;-62
2022/04/14 09:13:53;;;;;;;11.50;5.00;;;;;;;;;;5011925;28;20237;-64
2022/04/14 09:16:21;;;;;;;21.65;8.02;;;;;;;;;;4996947;28;20592;-61
2022/04/14 09:18:48;;;;;;;314.65;135.55;;;;;;;;;;4996601;28;20225;-62
2022/04/14 09:21:15;;;;;;;90.55;24.75;;;;;;;;;;4996149;28;20217;-61
2022/04/14 09:23:49;;;;;;;46.55;13.85;;;;;;;;;;4996311;28;20703;-61
2022/04/14 09:26:22;;;;;;;77.25;22.90;;;;;;;;;;4996313;28;20689;-62
2022/04/14 09:29:07;;;;;;;80.60;30.30;;;;;;;;;;4996219;28;20727;-61
2022/04/14 09:31:51;;;;;;;118.85;32.60;;;;;;;;;;4996201;28;20229;-61
2022/04/14 09:34:42;;;;;;;97.32;30.25;;;;;;;;;;4996109;28;20214;-61
2022/04/14 09:37:11;;;;;;;126.15;40.60;;;;;;;;;;4994939;28;20198;-60
2022/04/14 09:39:55;;;;;;;737.13;434.65;;;;;;;;;;4993973;28;20209;-60
2022/04/14 09:42:26;;;;;;;69.88;23.17;;;;;;;;;;4995994;28;20195;-62
2022/04/14 09:44:54;;;;;;;18.33;7.47;;;;;;;;;;4996284;28;20256;-61
2022/04/14 09:47:38;;;;;;;22.15;7.53;;;;;;;;;;4995933;28;20636;-62
2022/04/14 09:50:22;;;;;;;7.18;3.38;;;;;;;;;;4995867;28;20244;-61
2022/04/14 09:53:05;;;;;;;97.00;26.92;;;;;;;;;;4995760;28;20194;-61
2022/04/14 09:55:34;;;;;;;30.73;10.00;;;;;;;;;;4995711;28;20209;-62
2022/04/14 09:58:09;;;;;;;16.08;6.18;;;;;;;;;;5011047;28;20225;-61
2022/04/14 10:00:37;;;;;;;471.00;209.02;;;;;;;;;;4995596;28;20233;-62
2022/04/14 10:03:09;;;;;;;89.30;27.85;;;;;;;;;;4995563;28;20205;-62
2022/04/14 10:05:38;;;;;;;56.78;14.80;;;;;;;;;;4995560;28;20220;-62
2022/04/14 10:08:07;;;;;;;17.45;5.65;;;;;;;;;;4995488;28;20261;-62
2022/04/14 10:10:39;;;;;;;27.00;7.47;;;;;;;;;;4995420;28;20222;-61
2022/04/14 10:13:09;;;;;;;13.80;4.82;;;;;;;;;;4995864;28;20233;-62
2022/04/14 10:15:38;;;;;;;19.90;6.75;;;;;;;;;;4995457;28;20228;-61
2022/04/14 10:18:11;;;;;;;19.23;6.85;;;;;;;;;;4995565;28;20198;-61
2022/04/14 10:20:40;;;;;;;101.95;57.83;;;;;;;;;;4995339;28;20624;-61
2022/04/14 10:23:08;;;;;;;119.95;29.83;;;;;;;;;;4995291;28;20208;-46
2022/04/14 10:25:37;;;;;;;38.78;12.15;;;;;;;;;;4995257;28;20268;-45
2022/04/14 10:28:07;;;;;;;31.50;10.90;;;;;;;;;;4995501;28;20236;-49
2022/04/14 10:30:34;;;;;;;35.80;12.25;;;;;;;;;;4995796;28;20226;-46
2022/04/14 10:33:02;;;;;;;64.80;21.90;;;;;;;;;;4995740;28;20198;-46
2022/04/14 10:35:31;;;;;;;42.13;16.83;;;;;;;;;;4995416;28;20222;-47
2022/04/14 10:38:07;;;;;;;47.83;15.07;;;;;;;;;;4995170;28;20659;-47
2022/04/14 10:40:35;;;;;;;31.58;10.55;;;;;;;;;;4994457;28;20307;-48
2022/04/14 10:43:07;;;;;;;49.80;16.30;;;;;;;;;;5013664;28;20694;-46
2022/04/14 10:45:52;;;;;;;110.03;27.70;;;;;;;;;;5019516;28;20208;-46
2022/04/14 10:48:36;;;;;;;35.92;11.57;;;;;;;;;;5015003;28;20189;-46
2022/04/14 10:51:19;;;;;;;44.35;15.98;;;;;;;;;;5014842;28;20209;-45
2022/04/14 10:53:50;;;;;;;38.30;14.48;;;;;;;;;;5010091;28;20240;-45
2022/04/14 10:56:36;;;;;;;16.58;6.55;;;;;;;;;;5014252;28;20200;-46
2022/04/14 10:59:04;;;;;;;13.77;5.93;;;;;;;;;;5014886;28;20221;-48
2022/04/14 11:01:52;;;;;;;50.75;17.48;;;;;;;;;;5018339;28;20209;-47
2022/04/14 11:04:42;;;;;;;154.35;44.40;;;;;;;;;;5018316;28;20635;-51
2022/04/14 11:07:15;;;;;;;55.50;19.23;;;;;;;;;;5018200;28;20186;-46
2022/04/14 11:09:51;;;;;;;54.08;16.60;;;;;;;;;;5018754;28;20267;-47
2022/04/14 11:12:38;;;;;;;26.38;9.13;;;;;;;;;;5018144;28;20209;-46
2022/04/14 11:15:07;;;;;;;13.48;4.88;;;;;;;;;;5018106;28;20275;-47
2022/04/14 11:17:42;;;;;;;124.97;35.72;;;;;;;;;;5018454;28;20213;-46
2022/04/14 11:20:15;;;;;;;63.05;20.33;;;;;;;;;;5018621;28;20217;-46
2022/04/14 11:23:01;;;;;;;371.40;210.10;;;;;;;;;;5018755;28;20204;-47
2022/04/14 11:26:10;;;;;;;52.58;15.77;;;;;;;;;;5013074;28;20594;-46
2022/04/14 11:28:39;;;;;;;91.45;27.98;;;;;;;;;;5014982;28;20217;-47
2022/04/14 11:31:13;;;;;;;57.70;20.92;;;;;;;;;;5014356;28;20312;-50
2022/04/14 11:33:44;;;;;;;48.83;17.10;;;;;;;;;;5014830;28;20201;-49
2022/04/14 11:36:25;;;;;;;76.55;28.85;;;;;;;;;;5014751;28;20321;-50
2022/04/14 11:39:06;;;;;;;27.35;9.27;;;;;;;;;;5010127;28;20205;-49
2022/04/14 11:41:39;;;;;;;50.35;18.73;;;;;;;;;;5012635;28;20223;-53
2022/04/14 11:44:17;;;;;;;122.65;59.78;;;;;;;;;;5014568;28;20200;-54
2022/04/14 11:46:47;;;;;;;79.45;23.00;;;;;;;;;;5015362;28;20280;-52
2022/04/14 11:49:18;;;;;;;30.48;8.88;;;;;;;;;;5016505;28;20232;-53
2022/04/14 11:51:56;;;;;;;17.45;6.18;;;;;;;;;;5015533;28;20279;-50
2022/04/14 11:54:29;;;;;;;25.13;8.57;;;;;;;;;;5015840;28;20209;-47
2022/04/14 11:57:09;;;;;;;51.08;17.98;;;;;;;;;;5015856;28;20529;-46
2022/04/14 11:59:44;;;;;;;18.10;6.78;;;;;;;;;;5015320;28;20219;-49
2022/04/14 12:02:23;;;;;;;32.63;11.13;;;;;;;;;;4995391;28;20217;-47
2022/04/14 12:04:52;;;;;;;278.20;134.00;;;;;;;;;;5014411;28;20197;-53
2022/04/14 12:07:21;;;;;;;22.10;7.60;;;;;;;;;;5015561;28;20247;-51
2022/04/14 12:09:58;;;;;;;15.85;5.32;;;;;;;;;;5015949;28;20233;-52
2022/04/14 12:12:30;;;;;;;11.32;4.20;;;;;;;;;;5016654;28;20213;-48
2022/04/14 12:14:57;;;;;;;29.58;10.45;;;;;;;;;;5016285;28;20193;-49
2022/04/14 12:17:39;;;;;;;16.75;6.85;;;;;;;;;;5015630;28;20232;-48
2022/04/14 12:20:07;;;;;;;20.02;6.70;;;;;;;;;;5013574;28;20221;-48
2022/04/14 12:22:36;;;;;;;16.77;6.07;;;;;;;;;;5016958;28;20235;-48
2022/04/14 12:25:05;;;;;;;129.90;73.22;;;;;;;;;;5016816;28;20208;-47
2022/04/14 12:27:38;;;;;;;19.77;7.60;;;;;;;;;;5017283;28;20210;-48
2022/04/14 12:30:09;;;;;;;17.90;5.88;;;;;;;;;;5015855;28;20297;-45
2022/04/14 12:32:36;;;;;;;13.93;5.78;;;;;;;;;;5011622;28;20229;-46
2022/04/14 12:35:08;;;;;;;13.55;4.78;;;;;;;;;;5028608;28;20257;-48
2022/04/14 12:37:39;;;;;;;51.17;16.45;;;;;;;;;;5028249;28;20316;-50
2022/04/14 12:40:14;;;;;;;11.15;4.75;;;;;;;;;;5026314;28;20662;-48
2022/04/14 12:42:42;;;;;;;37.47;13.07;;;;;;;;;;5016754;28;20236;-49
2022/04/14 12:45:12;;;;;;;26.63;9.55;;;;;;;;;;5018932;28;20245;-47
2022/04/14 12:47:44;;;;;;;97.72;31.48;;;;;;;;;;5042752;28;20294;-47
2022/04/14 12:50:18;;;;;;;15.77;5.80;;;;;;;;;;5020575;28;20245;-50
2022/04/14 12:52:56;;;;;;;8.77;3.08;;;;;;;;;;5014628;28;20212;-49
2022/04/14 12:55:26;;;;;;;24.17;7.90;;;;;;;;;;5014184;28;20229;-46
2022/04/14 12:58:12;;;;;;;13.68;5.03;;;;;;;;;;5009439;28;20217;-49
2022/04/14 13:00:40;;;;;;;10.65;3.58;;;;;;;;;;5013480;28;20264;-49
2022/04/14 13:03:14;;;;;;;25.40;9.27;;;;;;;;;;5014655;28;20233;-47
2022/04/14 13:05:43;;;;;;;28.75;9.55;;;;;;;;;;5013163;28;20240;-47
2022/04/14 13:08:10;;;;;;;24.65;9.15;;;;;;;;;;5014954;28;20287;-46
2022/04/14 13:10:40;;;;;;;9.98;3.92;;;;;;;;;;5015121;28;20237;-48
2022/04/14 13:13:09;;;;;;;11.77;4.32;;;;;;;;;;5015138;28;20217;-46
2022/04/14 13:15:37;;;;;;;19.38;6.38;;;;;;;;;;5014685;28;20299;-46
2022/04/14 13:18:04;;;;;;;14.18;5.72;;;;;;;;;;5016749;28;20737;-46
2022/04/14 13:20:33;;;;;;;13.80;5.68;;;;;;;;;;5014858;28;20240;-45
2022/04/14 13:23:01;;;;;;;7.00;3.33;;;;;;;;;;5013476;28;20221;-49
2022/04/14 13:25:28;;;;;;;13.93;5.38;;;;;;;;;;5007599;28;20287;-48
2022/04/14 13:27:55;;;;;;;300.05;165.77;;;;;;;;;;5013402;28;20249;-48
2022/04/14 13:30:22;;;;;;;87.95;22.30;;;;;;;;;;5011166;28;20287;-48
2022/04/14 13:32:49;;;;;;;23.00;6.60;;;;;;;;;;5013157;28;20217;-49
2022/04/14 13:35:17;;;;;;;15.75;6.95;;;;;;;;;;5013184;28;20316;-49
2022/04/14 13:37:45;;;;;;;38.88;13.15;;;;;;;;;;5013458;28;20228;-53
2022/04/14 13:40:16;;;;;;;12.90;5.90;;;;;;;;;;5012295;28;20222;-47
2022/04/14 13:42:44;;;;;;;10.38;4.63;;;;;;;;;;5008707;28;20225;-49
2022/04/14 13:45:11;;;;;;;15.52;7.60;;;;;;;;;;5012657;28;20228;-50
2022/04/14 13:47:40;;;;;;;169.20;53.05;;;;;;;;;;5013341;28;20229;-52
2022/04/14 13:50:12;;;;;;;33.03;11.10;;;;;;;;;;5013282;28;20798;-51
2022/04/14 13:52:40;;;;;;;45.25;11.68;;;;;;;;;;5011561;28;20324;-51
2022/04/14 13:55:08;;;;;;;37.92;10.30;;;;;;;;;;5013379;28;20329;-51
2022/04/14 13:57:35;;;;;;;20.63;7.10;;;;;;;;;;5013398;28;20219;-49
2022/04/14 14:00:04;;;;;;;20.85;7.38;;;;;;;;;;5013185;28;20252;-53
2022/04/14 14:02:31;;;;;;;15.05;5.50;;;;;;;;;;5012676;28;20217;-49
2022/04/14 14:04:59;;;;;;;30.75;11.68;;;;;;;;;;5012957;28;20675;-51
2022/04/14 14:07:27;;;;;;;30.92;11.13;;;;;;;;;;5013385;28;20217;-50
2022/04/14 14:09:55;;;;;;;226.90;104.70;;;;;;;;;;5029134;28;20668;-50
2022/04/14 14:12:23;;;;;;;133.05;36.17;;;;;;;;;;5013251;28;20308;-48
2022/04/14 14:14:50;;;;;;;30.67;11.38;;;;;;;;;;5013021;28;20296;-51
2022/04/14 14:17:17;;;;;;;13.30;5.78;;;;;;;;;;5013995;28;20610;-48
2022/04/14 14:19:46;;;;;;;36.63;8.32;;;;;;;;;;5012831;28;20308;-49
2022/04/14 14:22:13;;;;;;;31.33;10.60;;;;;;;;;;5013062;28;20240;-50
2022/04/14 14:24:41;;;;;;;21.13;8.25;;;;;;;;;;5012741;28;20670;-48
2022/04/14 14:27:08;;;;;;;18.80;6.82;;;;;;;;;;5010949;28;20217;-47